createdAt,value
2022-07-30T00:02:20.174Z,1.88
2022-07-30T00:04:49.288Z,2.20
2022-07-30T00:07:17.487Z,1.90
2022-07-30T00:09:45.412Z,2.10
2022-07-30T00:12:13.248Z,1.90
2022-07-30T00:14:41.224Z,1.90
2022-07-30T00:17:09.498Z,2.22
2022-07-30T00:19:38.743Z,2.67
2022-07-30T00:22:06.667Z,1.98
2022-07-30T00:24:34.506Z,1.95
2022-07-30T00:27:03.371Z,1.98
2022-07-30T00:29:31.808Z,1.95
2022-07-30T00:31:59.687Z,2.00
2022-07-30T00:34:27.529Z,2.00
2022-07-30T00:36:56.843Z,2.30
2022-07-30T00:39:24.788Z,2.13
2022-07-30T00:41:57.886Z,2.20
2022-07-30T00:44:25.816Z,2.15
2022-07-30T00:46:54.274Z,2.08
2022-07-30T00:49:22.559Z,2.42
2022-07-30T00:51:51.900Z,2.17
2022-07-30T00:54:22.209Z,2.40
2022-07-30T00:56:50.422Z,2.20
2022-07-30T00:59:18.411Z,2.33
2022-07-30T01:01:46.481Z,2.30
2022-07-30T01:04:14.607Z,1.88
2022-07-30T01:06:42.461Z,2.05
2022-07-30T01:09:10.341Z,1.92
2022-07-30T01:11:41.436Z,2.20
2022-07-30T01:14:10.513Z,2.38
2022-07-30T01:16:41.540Z,1.98
2022-07-30T01:19:33.621Z,1.98
2022-07-30T01:22:10.303Z,1.85
2022-07-30T01:24:43.822Z,2.70
2022-07-30T01:27:19.379Z,2.60
2022-07-30T01:29:49.086Z,1.42
2022-07-30T01:32:18.662Z,1.50
2022-07-30T01:34:47.484Z,2.05
2022-07-30T01:37:17.764Z,1.50
2022-07-30T01:39:50.522Z,1.20
2022-07-30T01:42:21.518Z,1.33
2022-07-30T01:44:50.514Z,1.50
2022-07-30T01:47:21.698Z,1.20
2022-07-30T01:49:51.993Z,1.30
2022-07-30T01:52:21.650Z,2.15
2022-07-30T01:54:51.747Z,1.70
2022-07-30T01:57:22.957Z,1.30
2022-07-30T01:59:55.689Z,1.60
2022-07-30T02:02:23.802Z,1.40
2022-07-30T02:04:51.813Z,1.63
2022-07-30T02:07:25.316Z,2.22
2022-07-30T02:09:56.486Z,1.65
2022-07-30T02:12:29.972Z,1.48
2022-07-30T02:15:15.179Z,1.50
2022-07-30T02:17:45.481Z,1.35
2022-07-30T02:20:17.264Z,1.38
2022-07-30T02:22:48.161Z,1.40
2022-07-30T02:25:20.447Z,1.58
2022-07-30T02:27:55.630Z,1.50
2022-07-30T02:30:28.071Z,1.27
2022-07-30T02:33:01.464Z,1.45
2022-07-30T02:35:31.510Z,1.63
2022-07-30T02:38:02.672Z,1.65
2022-07-30T02:40:31.987Z,1.60
2022-07-30T02:43:02.519Z,1.58
2022-07-30T02:45:32.376Z,1.73
2022-07-30T02:48:03.078Z,1.52
2022-07-30T02:50:31.678Z,1.38
2022-07-30T02:53:01.520Z,1.52
2022-07-30T02:55:32.305Z,1.40
2022-07-30T02:58:03.831Z,1.65
2022-07-30T03:00:33.029Z,1.48
2022-07-30T03:03:01.815Z,1.70
2022-07-30T03:05:30.571Z,1.85
2022-07-30T03:08:01.561Z,1.77
2022-07-30T03:10:31.871Z,1.70
2022-07-30T03:13:02.148Z,2.00
2022-07-30T03:15:31.042Z,2.03
2022-07-30T03:18:00.875Z,1.70
2022-07-30T03:20:31.659Z,1.92
2022-07-30T03:23:02.470Z,1.70
2022-07-30T03:25:32.869Z,1.88
2022-07-30T03:28:04.029Z,1.55
2022-07-30T03:30:34.415Z,1.80
2022-07-30T03:33:02.962Z,1.88
2022-07-30T03:35:31.660Z,1.60
2022-07-30T03:38:01.884Z,1.50
2022-07-30T03:40:32.411Z,1.50
2022-07-30T03:43:02.334Z,1.75
2022-07-30T03:45:31.203Z,1.95
2022-07-30T03:48:07.904Z,1.63
2022-07-30T03:50:37.876Z,1.85
2022-07-30T03:53:06.912Z,2.30
2022-07-30T03:55:41.171Z,2.00
2022-07-30T03:58:30.559Z,2.03
2022-07-30T04:01:05.636Z,2.00
2022-07-30T04:03:34.795Z,1.85
2022-07-30T04:06:05.756Z,1.90
2022-07-30T04:08:34.107Z,2.28
2022-07-30T04:11:03.851Z,1.70
2022-07-30T04:14:01.743Z,1.75
2022-07-30T04:16:41.328Z,2.10
2022-07-30T04:19:18.771Z,1.95
2022-07-30T04:21:48.688Z,1.63
2022-07-30T04:24:18.054Z,1.60
2022-07-30T04:26:48.527Z,1.33
2022-07-30T04:29:24.117Z,1.25
2022-07-30T04:31:54.637Z,1.42
2022-07-30T04:34:34.650Z,1.58
2022-07-30T04:37:04.914Z,1.40
2022-07-30T04:39:33.122Z,1.60
2022-07-30T04:42:01.446Z,1.40
2022-07-30T04:44:37.889Z,1.83
2022-07-30T04:47:26.362Z,1.75
2022-07-30T04:50:27.383Z,1.60
2022-07-30T04:52:57.041Z,1.77
2022-07-30T04:55:31.227Z,1.85
2022-07-30T04:58:00.731Z,1.80
2022-07-30T05:00:40.438Z,1.98
2022-07-30T05:03:13.635Z,2.20
2022-07-30T05:05:46.681Z,1.75
2022-07-30T05:08:14.862Z,1.90
2022-07-30T05:10:44.700Z,1.55
2022-07-30T05:13:14.146Z,1.30
2022-07-30T05:15:45.461Z,1.65
2022-07-30T05:18:14.860Z,1.77
2022-07-30T05:20:44.751Z,1.45
2022-07-30T05:23:34.114Z,1.90
2022-07-30T05:26:12.465Z,1.70
2022-07-30T05:28:49.496Z,1.73
2022-07-30T05:31:26.985Z,1.55
2022-07-30T05:34:03.356Z,1.92
2022-07-30T05:36:38.893Z,2.42
2022-07-30T05:39:06.982Z,1.83
2022-07-30T05:41:55.187Z,1.45
2022-07-30T05:44:43.306Z,1.77
2022-07-30T05:47:12.583Z,1.60
2022-07-30T05:49:40.879Z,1.77
2022-07-30T05:52:13.871Z,1.98
2022-07-30T05:54:42.348Z,2.17
2022-07-30T05:57:25.430Z,2.42
2022-07-30T05:59:53.412Z,1.80
2022-07-30T06:02:26.921Z,2.15
2022-07-30T06:05:14.723Z,1.95
2022-07-30T06:07:43.636Z,1.90
2022-07-30T06:10:11.842Z,2.00
2022-07-30T06:12:39.774Z,1.83
2022-07-30T06:15:09.844Z,1.83
2022-07-30T06:17:44.794Z,2.13
2022-07-30T06:20:37.637Z,1.90
2022-07-30T06:23:16.204Z,1.65
2022-07-30T06:26:07.256Z,1.98
2022-07-30T06:28:38.175Z,1.92
2022-07-30T06:31:12.794Z,1.88
2022-07-30T06:33:43.092Z,1.92
2022-07-30T06:36:14.344Z,2.00
2022-07-30T06:39:11.684Z,1.88
2022-07-30T06:41:54.951Z,2.13
2022-07-30T06:44:22.940Z,2.03
2022-07-30T06:47:09.486Z,2.10
2022-07-30T06:49:41.466Z,2.70
2022-07-30T06:52:14.502Z,2.33
2022-07-30T06:54:48.715Z,2.40
2022-07-30T06:57:24.460Z,2.63
2022-07-30T06:59:56.543Z,2.40
2022-07-30T07:02:42.674Z,2.00
2022-07-30T07:05:14.906Z,2.30
2022-07-30T07:07:58.269Z,2.20
2022-07-30T07:10:30.376Z,2.15
2022-07-30T07:13:10.920Z,2.03
2022-07-30T07:15:39.078Z,2.30
2022-07-30T07:18:12.730Z,2.15
2022-07-30T07:20:46.593Z,1.95
2022-07-30T07:23:14.539Z,2.00
2022-07-30T07:25:43.400Z,1.90
2022-07-30T07:28:13.552Z,2.13
2022-07-30T07:30:45.040Z,2.17
2022-07-30T07:33:15.619Z,2.13
2022-07-30T07:35:49.645Z,2.28
2022-07-30T07:38:25.159Z,2.92
2022-07-30T07:40:55.239Z,2.55
2022-07-30T07:43:25.128Z,2.22
2022-07-30T07:45:54.088Z,2.33
2022-07-30T07:48:22.493Z,2.08
2022-07-30T07:51:00.992Z,3.58
2022-07-30T07:53:32.283Z,2.60
2022-07-30T07:56:00.185Z,2.08
2022-07-30T07:58:28.232Z,2.17
2022-07-30T08:01:00.035Z,2.08
2022-07-30T08:03:47.956Z,2.30
2022-07-30T08:06:52.039Z,2.45
2022-07-30T08:09:40.702Z,2.40
2022-07-30T08:12:21.353Z,2.50
2022-07-30T08:15:09.410Z,2.85
2022-07-30T08:17:54.648Z,2.78
2022-07-30T08:20:41.341Z,2.40
2022-07-30T08:23:12.016Z,2.40
2022-07-30T08:25:39.972Z,2.38
2022-07-30T08:28:08.132Z,2.80
2022-07-30T08:30:59.159Z,2.10
2022-07-30T08:33:30.141Z,2.00
2022-07-30T08:35:59.400Z,1.73
2022-07-30T08:38:39.251Z,2.03
2022-07-30T08:41:08.434Z,1.80
2022-07-30T08:43:37.660Z,2.30
2022-07-30T08:46:11.957Z,2.20
2022-07-30T08:48:59.835Z,2.00
2022-07-30T08:51:36.649Z,3.13
2022-07-30T08:54:12.100Z,1.90
2022-07-30T08:56:41.884Z,1.83
2022-07-30T08:59:10.202Z,2.20
2022-07-30T09:01:39.878Z,2.22
2022-07-30T09:04:08.287Z,2.13
2022-07-30T09:06:37.294Z,1.90
2022-07-30T09:09:08.770Z,1.80
2022-07-30T09:11:38.042Z,1.90
2022-07-30T09:14:10.633Z,2.03
2022-07-30T09:16:40.276Z,1.77
2022-07-30T09:19:16.800Z,2.05
2022-07-30T09:21:56.607Z,2.00
2022-07-30T09:24:43.133Z,2.50
2022-07-30T09:27:46.016Z,1.90
2022-07-30T09:30:49.763Z,2.30
2022-07-30T09:33:40.189Z,2.25
2022-07-30T09:36:32.874Z,2.20
2022-07-30T09:39:30.692Z,2.30
2022-07-30T09:42:19.558Z,2.00
2022-07-30T09:44:49.558Z,1.90
2022-07-30T09:47:32.594Z,2.20
2022-07-30T09:50:07.392Z,2.38
2022-07-30T09:52:36.111Z,2.00
2022-07-30T09:55:14.020Z,2.20
2022-07-30T09:57:58.735Z,2.35
2022-07-30T10:00:31.999Z,2.50
2022-07-30T10:03:32.880Z,2.45
2022-07-30T10:06:20.518Z,2.60
2022-07-30T10:08:51.341Z,2.30
2022-07-30T10:11:23.842Z,2.42
2022-07-30T10:13:59.109Z,2.30
2022-07-30T10:16:30.429Z,2.28
2022-07-30T10:19:00.376Z,2.10
2022-07-30T10:21:47.339Z,2.35
2022-07-30T10:24:37.422Z,2.40
2022-07-30T10:27:22.008Z,1.70
2022-07-30T10:30:04.258Z,1.80
2022-07-30T10:32:35.408Z,1.90
2022-07-30T10:35:04.429Z,2.47
2022-07-30T10:37:34.072Z,1.85
2022-07-30T10:40:11.171Z,2.33
2022-07-30T10:42:58.692Z,2.00
2022-07-30T10:45:33.738Z,1.90
2022-07-30T10:48:11.576Z,2.17
2022-07-30T10:50:51.199Z,1.90
2022-07-30T10:53:39.748Z,1.70
2022-07-30T10:56:25.507Z,3.15
2022-07-30T10:59:05.401Z,2.17
2022-07-30T11:02:10.892Z,1.80
2022-07-30T11:04:42.000Z,2.22
2022-07-30T11:07:31.486Z,1.65
2022-07-30T11:10:05.565Z,1.55
2022-07-30T11:12:56.468Z,1.67
2022-07-30T11:15:24.925Z,1.70
2022-07-30T11:18:13.604Z,1.40
2022-07-30T11:20:48.647Z,1.83
2022-07-30T11:23:39.974Z,1.75
2022-07-30T11:26:14.272Z,1.80
2022-07-30T11:28:45.068Z,1.90
2022-07-30T11:31:54.895Z,1.60
2022-07-30T11:34:27.653Z,1.15
2022-07-30T11:37:19.303Z,1.80
2022-07-30T11:40:10.925Z,1.58
2022-07-30T11:42:41.433Z,1.80
2022-07-30T11:45:30.557Z,2.45
2022-07-30T11:48:03.050Z,1.45
2022-07-30T11:50:33.194Z,1.50
2022-07-30T11:53:05.302Z,1.33
2022-07-30T11:55:35.425Z,1.40
2022-07-30T11:58:05.935Z,1.30
2022-07-30T12:00:38.947Z,1.30
2022-07-30T12:03:14.422Z,1.30
2022-07-30T12:05:43.507Z,1.48
2022-07-30T12:08:33.466Z,1.40
2022-07-30T12:11:02.775Z,1.27
2022-07-30T12:13:44.315Z,1.30
2022-07-30T12:16:15.828Z,1.20
2022-07-30T12:18:44.062Z,1.63
2022-07-30T12:21:13.620Z,1.40
2022-07-30T12:23:43.544Z,1.40
2022-07-30T12:26:22.262Z,1.50
2022-07-30T12:28:50.465Z,1.27
2022-07-30T12:31:19.040Z,1.20
2022-07-30T12:33:47.507Z,1.30
2022-07-30T12:36:26.079Z,1.10
2022-07-30T12:38:56.633Z,1.20
2022-07-30T12:41:25.032Z,1.50
2022-07-30T12:43:55.197Z,1.00
2022-07-30T12:46:25.324Z,1.13
2022-07-30T12:48:55.395Z,1.13
2022-07-30T12:51:24.700Z,1.00
2022-07-30T12:53:55.892Z,1.08
2022-07-30T12:56:25.811Z,1.20
2022-07-30T12:58:54.840Z,1.10
2022-07-30T13:01:40.674Z,1.55
2022-07-30T13:04:09.131Z,1.15
2022-07-30T13:06:38.016Z,1.20
2022-07-30T13:09:08.219Z,1.13
2022-07-30T13:11:41.004Z,1.30
2022-07-30T13:14:10.864Z,1.20
2022-07-30T13:16:39.427Z,1.00
2022-07-30T13:19:08.080Z,0.93
2022-07-30T13:21:36.279Z,1.15
2022-07-30T13:24:04.959Z,1.38
2022-07-30T13:26:35.534Z,0.98
2022-07-30T13:29:04.239Z,1.60
2022-07-30T13:31:42.971Z,1.10
2022-07-30T13:34:11.953Z,1.30
2022-07-30T13:36:39.902Z,0.95
2022-07-30T13:39:07.791Z,1.38
2022-07-30T13:41:37.195Z,1.17
2022-07-30T13:44:05.602Z,1.05
2022-07-30T13:46:33.530Z,1.08
2022-07-30T13:49:01.538Z,1.20
2022-07-30T13:51:29.450Z,1.70
2022-07-30T13:53:57.348Z,1.23
2022-07-30T13:56:25.356Z,1.48
2022-07-30T13:58:55.676Z,1.25
2022-07-30T14:01:23.753Z,1.20
2022-07-30T14:03:51.622Z,1.25
2022-07-30T14:06:19.579Z,1.20
2022-07-30T14:08:47.621Z,1.45
2022-07-30T14:11:15.581Z,1.30
2022-07-30T14:13:43.480Z,1.00
2022-07-30T14:16:35.226Z,0.90
2022-07-30T14:19:01.843Z,1.15
2022-07-30T14:21:29.722Z,1.00
2022-07-30T14:23:57.922Z,1.40
2022-07-30T14:26:25.902Z,1.70
2022-07-30T14:29:04.473Z,1.38
2022-07-30T14:31:34.024Z,1.40
2022-07-30T14:34:02.548Z,1.10
2022-07-30T14:36:30.752Z,1.20
2022-07-30T14:38:58.884Z,1.10
2022-07-30T14:41:28.260Z,1.25
2022-07-30T14:43:56.735Z,1.30
2022-07-30T14:46:25.155Z,1.30
2022-07-30T14:48:54.513Z,1.17
2022-07-30T14:51:26.337Z,1.88
2022-07-30T14:53:55.548Z,1.65
2022-07-30T14:56:25.135Z,1.10
2022-07-30T14:58:54.185Z,1.20
2022-07-30T15:01:22.252Z,1.27
2022-07-30T15:03:50.454Z,1.20
2022-07-30T15:06:19.735Z,1.38
2022-07-30T15:08:47.772Z,1.00
2022-07-30T15:11:15.800Z,1.20
2022-07-30T15:13:50.539Z,1.00
2022-07-30T15:16:19.067Z,1.17
2022-07-30T15:18:46.919Z,1.30
2022-07-30T15:21:15.376Z,1.00
2022-07-30T15:23:44.740Z,1.40
2022-07-30T15:26:12.686Z,1.02
2022-07-30T15:28:40.560Z,1.15
2022-07-30T15:31:08.448Z,1.10
2022-07-30T15:33:41.734Z,1.38
2022-07-30T15:36:10.178Z,1.33
2022-07-30T15:38:38.666Z,1.40
2022-07-30T15:41:13.056Z,1.02
2022-07-30T15:43:41.706Z,1.00
2022-07-30T15:46:09.548Z,0.95
2022-07-30T15:48:37.776Z,1.30
2022-07-30T15:51:06.110Z,1.77
2022-07-30T15:53:34.250Z,1.15
2022-07-30T15:56:02.168Z,1.15
2022-07-30T15:58:31.453Z,1.02
2022-07-30T16:00:59.367Z,1.08
2022-07-30T16:03:27.301Z,1.23
2022-07-30T16:05:55.130Z,1.27
2022-07-30T16:08:23.054Z,1.67
2022-07-30T16:10:51.915Z,0.93
2022-07-30T16:13:20.094Z,0.95
2022-07-30T16:15:49.287Z,1.10
2022-07-30T16:18:17.147Z,1.23
2022-07-30T16:20:45.094Z,1.08
2022-07-30T16:23:15.974Z,1.05
2022-07-30T16:25:47.371Z,1.42
2022-07-30T16:28:15.266Z,1.10
2022-07-30T16:30:51.432Z,1.20
2022-07-30T16:33:21.399Z,1.27
2022-07-30T16:35:51.254Z,1.33
2022-07-30T16:38:19.690Z,0.98
2022-07-30T16:40:47.730Z,1.13
2022-07-30T16:43:16.359Z,1.27
2022-07-30T16:45:47.538Z,1.23
2022-07-30T16:48:15.902Z,1.25
2022-07-30T16:50:45.938Z,1.23
2022-07-30T16:53:14.777Z,1.38
2022-07-30T16:55:42.987Z,1.23
2022-07-30T16:58:10.939Z,1.25
2022-07-30T17:00:39.233Z,1.27
2022-07-30T17:03:07.620Z,1.45
2022-07-30T17:05:35.678Z,1.00
2022-07-30T17:08:07.455Z,1.10
2022-07-30T17:10:36.380Z,1.30
2022-07-30T17:13:04.447Z,1.30
2022-07-30T17:15:33.308Z,1.45
2022-07-30T17:18:01.630Z,1.17
2022-07-30T17:20:30.027Z,1.17
2022-07-30T17:22:57.953Z,1.00
2022-07-30T17:25:28.134Z,1.48
2022-07-30T17:27:56.300Z,1.00
2022-07-30T17:30:24.557Z,1.30
2022-07-30T17:32:52.864Z,1.80
2022-07-30T17:35:20.977Z,1.30
2022-07-30T17:37:49.327Z,1.20
2022-07-30T17:40:28.463Z,1.27
2022-07-30T17:43:03.228Z,1.05
2022-07-30T17:45:31.673Z,2.22
2022-07-30T17:48:01.366Z,1.05
2022-07-30T17:50:29.400Z,1.50
2022-07-30T17:52:57.369Z,1.30
2022-07-30T17:55:25.706Z,1.10
2022-07-30T17:57:53.582Z,1.60
2022-07-30T18:00:22.976Z,1.20
2022-07-30T18:02:50.818Z,1.10
2022-07-30T18:05:18.726Z,1.10
2022-07-30T18:07:46.654Z,1.15
2022-07-30T18:10:14.548Z,1.30
2022-07-30T18:12:48.468Z,1.00
2022-07-30T18:15:17.506Z,1.50
2022-07-30T18:17:46.793Z,1.88
2022-07-30T18:20:15.066Z,1.10
2022-07-30T18:22:42.970Z,1.20
2022-07-30T18:25:18.607Z,1.13
2022-07-30T18:27:48.227Z,1.20
2022-07-30T18:30:16.682Z,1.10
2022-07-30T18:32:46.284Z,1.23
2022-07-30T18:35:15.399Z,1.13
2022-07-30T18:37:43.740Z,1.30
2022-07-30T18:40:13.219Z,1.35
2022-07-30T18:42:41.184Z,1.20
2022-07-30T18:45:10.399Z,1.17
2022-07-30T18:47:38.262Z,1.05
2022-07-30T18:50:09.253Z,1.25
2022-07-30T18:52:37.163Z,1.15
2022-07-30T18:55:06.068Z,1.40
2022-07-30T18:57:33.980Z,1.38
2022-07-30T19:00:02.610Z,1.33
2022-07-30T19:02:30.465Z,1.25
2022-07-30T19:04:59.318Z,1.67
2022-07-30T19:07:28.551Z,1.30
2022-07-30T19:09:58.555Z,1.40
2022-07-30T19:12:27.478Z,1.50
2022-07-30T19:14:55.355Z,2.55
2022-07-30T19:17:23.335Z,1.63
2022-07-30T19:20:12.210Z,1.17
2022-07-30T19:22:41.582Z,1.30
2022-07-30T19:25:10.358Z,1.38
2022-07-30T19:27:38.285Z,1.20
2022-07-30T19:30:07.423Z,1.40
2022-07-30T19:32:35.332Z,1.02
2022-07-30T19:35:03.182Z,1.10
2022-07-30T19:37:31.008Z,1.00
2022-07-30T19:40:06.651Z,1.15
2022-07-30T19:42:35.091Z,1.25
2022-07-30T19:45:04.495Z,1.42
2022-07-30T19:47:42.626Z,1.00
2022-07-30T19:50:11.660Z,1.42
2022-07-30T19:52:50.997Z,1.20
2022-07-30T19:55:35.199Z,1.30
2022-07-30T19:58:05.156Z,1.25
2022-07-30T20:03:33.118Z,2.42
2022-07-30T20:06:01.757Z,1.17
2022-07-30T20:08:30.800Z,1.27
2022-07-30T20:11:01.452Z,1.10
2022-07-30T20:13:45.154Z,1.00
2022-07-30T20:16:14.621Z,1.30
2022-07-30T20:18:44.319Z,1.48
2022-07-30T20:21:15.477Z,1.13
2022-07-30T20:23:44.364Z,1.45
2022-07-30T20:26:15.075Z,1.23
2022-07-30T20:28:43.842Z,1.50
2022-07-30T20:31:13.717Z,1.30
2022-07-30T20:33:43.300Z,1.33
2022-07-30T20:36:18.256Z,1.30
2022-07-30T20:38:47.034Z,1.40
2022-07-30T20:41:16.920Z,1.15
2022-07-30T20:43:52.229Z,1.40
2022-07-30T20:46:23.807Z,1.10
2022-07-30T20:48:52.114Z,1.35
2022-07-30T20:51:20.212Z,1.30
2022-07-30T20:53:49.451Z,1.40
2022-07-30T20:56:20.014Z,1.35
2022-07-30T20:58:48.310Z,1.30
2022-07-30T21:01:17.506Z,1.00
2022-07-30T21:03:48.108Z,1.48
2022-07-30T21:06:16.942Z,1.40
2022-07-30T21:08:44.821Z,1.80
2022-07-30T21:11:13.332Z,1.35
2022-07-30T21:13:43.808Z,1.20
2022-07-30T21:16:15.791Z,1.27
2022-07-30T21:18:49.704Z,1.42
2022-07-30T21:21:30.576Z,1.58
2022-07-30T21:24:11.736Z,1.35
2022-07-30T21:26:41.295Z,3.45
2022-07-30T21:29:11.014Z,1.40
2022-07-30T21:31:59.084Z,1.40
2022-07-30T21:34:30.846Z,1.60
2022-07-30T21:37:03.427Z,1.60
2022-07-30T21:39:31.343Z,1.60
2022-07-30T21:42:08.331Z,1.38
2022-07-30T21:44:38.312Z,1.33
2022-07-30T21:47:09.983Z,1.88
2022-07-30T21:49:38.758Z,1.40
2022-07-30T21:52:08.398Z,1.50
2022-07-30T21:54:48.172Z,1.60
2022-07-30T21:57:23.216Z,1.40
2022-07-30T21:59:56.180Z,1.70
2022-07-30T22:02:24.080Z,1.40
2022-07-30T22:04:52.169Z,1.50
2022-07-30T22:07:21.882Z,1.48
2022-07-30T22:09:50.213Z,1.60
2022-07-30T22:12:18.733Z,1.50
2022-07-30T22:14:46.940Z,1.42
2022-07-30T22:17:23.564Z,1.50
2022-07-30T22:19:57.892Z,1.67
2022-07-30T22:22:30.102Z,1.83
2022-07-30T22:25:03.614Z,1.50
2022-07-30T22:27:39.749Z,2.35
2022-07-30T22:30:23.708Z,1.90
2022-07-30T22:32:52.940Z,1.90
2022-07-30T22:35:33.501Z,2.20
2022-07-30T22:38:03.065Z,2.15
2022-07-30T22:40:31.037Z,2.22
2022-07-30T22:42:59.583Z,2.10
2022-07-30T22:45:47.032Z,2.58
2022-07-30T22:48:19.301Z,2.90
2022-07-30T22:50:48.542Z,2.63
2022-07-30T22:54:11.807Z,2.70
2022-07-30T22:56:15.493Z,2.50
2022-07-30T22:58:44.299Z,2.67
2022-07-30T23:01:12.206Z,2.67
2022-07-30T23:03:42.150Z,3.10
2022-07-30T23:06:14.728Z,2.97
2022-07-30T23:08:44.279Z,3.80
2022-07-30T23:11:12.158Z,3.33
2022-07-30T23:12:17.618Z,0.95
2022-07-30T23:13:40.310Z,3.70
2022-07-30T23:16:08.241Z,3.63
2022-07-30T23:18:36.114Z,3.47
2022-07-30T23:21:05.744Z,3.35
2022-07-30T23:23:35.583Z,3.33
2022-07-30T23:26:04.040Z,3.92
2022-07-30T23:28:31.987Z,2.83
2022-07-30T23:31:00.124Z,3.53
2022-07-30T23:33:28.092Z,3.03
2022-07-30T23:35:56.579Z,3.13
2022-07-30T23:38:26.002Z,2.42
2022-07-30T23:40:53.977Z,3.28
2022-07-30T23:43:21.961Z,2.97
2022-07-30T23:45:49.918Z,3.20
2022-07-30T23:48:17.814Z,2.75
2022-07-30T23:50:45.793Z,2.78
2022-07-30T23:53:13.636Z,3.20
2022-07-30T23:55:42.888Z,3.20
2022-07-30T23:58:10.746Z,2.80
